createdAt,value
2019-04-27T00:00:38.515Z,74.17
2019-04-27T00:03:15.374Z,75.12
2019-04-27T00:05:55.155Z,75.70
2019-04-27T00:08:35.056Z,76.07
2019-04-27T00:11:08.834Z,75.33
2019-04-27T00:13:40.585Z,74.93
2019-04-27T00:16:11.302Z,75.36
2019-04-27T00:18:49.866Z,75.41
2019-04-27T00:21:23.870Z,75.58
2019-04-27T00:23:53.342Z,75.44
2019-04-27T00:26:23.332Z,75.56
2019-04-27T00:28:53.791Z,75.21
2019-04-27T00:31:23.509Z,74.70
2019-04-27T00:33:53.547Z,73.95
2019-04-27T00:36:24.809Z,74.06
2019-04-27T00:38:55.838Z,74.17
2019-04-27T00:41:25.355Z,73.71
2019-04-27T00:43:54.754Z,73.49
2019-04-27T00:46:24.178Z,73.65
2019-04-27T00:48:53.592Z,73.62
2019-04-27T00:51:23.237Z,73.86
2019-04-27T00:53:53.610Z,73.81
2019-04-27T00:56:37.234Z,74.15
2019-04-27T00:59:20.265Z,74.38
2019-04-27T01:02:07.742Z,74.63
2019-04-27T01:04:37.375Z,74.78
2019-04-27T01:07:06.850Z,74.81
2019-04-27T01:09:36.416Z,75.16
2019-04-27T01:12:06.147Z,75.10
2019-04-27T01:14:35.715Z,75.36
2019-04-27T01:17:05.269Z,75.03
2019-04-27T01:19:34.725Z,75.38
2019-04-27T01:22:04.272Z,75.76
2019-04-27T01:24:33.730Z,75.84
2019-04-27T01:27:16.579Z,76.11
2019-04-27T01:29:45.990Z,76.19
2019-04-27T01:32:16.250Z,76.36
2019-04-27T01:34:46.597Z,76.46
2019-04-27T01:37:15.989Z,76.53
2019-04-27T01:39:45.400Z,76.67
2019-04-27T01:42:14.801Z,76.76
2019-04-27T01:44:44.896Z,76.71
2019-04-27T01:47:14.311Z,76.74
2019-04-27T01:49:43.723Z,76.41
2019-04-27T01:52:13.113Z,76.46
2019-04-27T01:54:42.521Z,76.43
2019-04-27T01:57:11.990Z,76.37
2019-04-27T01:59:41.406Z,76.59
2019-04-27T02:02:21.415Z,76.53
2019-04-27T02:04:59.350Z,76.47
2019-04-27T02:07:30.031Z,76.07
2019-04-27T02:09:59.467Z,76.24
2019-04-27T02:12:29.119Z,76.12
2019-04-27T02:14:59.968Z,75.72
2019-04-27T02:17:29.356Z,75.84
2019-04-27T02:19:59.500Z,75.33
2019-04-27T02:22:29.682Z,75.42
2019-04-27T02:24:59.232Z,74.50
2019-04-27T02:27:30.331Z,74.58
2019-04-27T02:30:01.454Z,74.01
2019-04-27T02:32:41.089Z,74.36
2019-04-27T02:35:11.762Z,74.93
2019-04-27T02:37:41.146Z,75.47
2019-04-27T02:40:30.559Z,76.01
2019-04-27T02:43:00.084Z,76.37
2019-04-27T02:45:30.286Z,76.51
2019-04-27T02:47:59.939Z,76.65
2019-04-27T02:50:29.409Z,76.71
2019-04-27T02:52:59.873Z,77.04
2019-04-27T02:55:31.432Z,77.12
2019-04-27T02:58:00.852Z,76.90
2019-04-27T03:00:31.860Z,77.28
2019-04-27T03:03:03.090Z,77.04
2019-04-27T03:05:32.472Z,77.22
2019-04-27T03:08:01.948Z,77.31
2019-04-27T03:10:31.809Z,77.31
2019-04-27T03:13:20.030Z,77.44
2019-04-27T03:16:03.313Z,77.57
2019-04-27T03:18:50.844Z,77.96
2019-04-27T03:21:21.982Z,77.85
2019-04-27T03:23:51.539Z,78.06
2019-04-27T03:26:22.592Z,78.16
2019-04-27T03:28:53.028Z,78.29
2019-04-27T03:31:22.440Z,78.44
2019-04-27T03:33:58.559Z,78.56
2019-04-27T03:36:23.056Z,78.47
2019-04-27T03:38:52.458Z,78.59
2019-04-27T03:41:22.006Z,78.62
2019-04-27T03:43:54.276Z,78.81
2019-04-27T03:46:23.739Z,78.88
2019-04-27T03:48:53.285Z,78.93
2019-04-27T03:51:42.259Z,78.84
2019-04-27T03:54:13.292Z,78.77
2019-04-27T03:56:44.359Z,78.42
2019-04-27T03:59:27.177Z,78.04
2019-04-27T04:01:59.035Z,77.48
2019-04-27T04:04:29.611Z,77.47
2019-04-27T04:07:14.768Z,77.51
2019-04-27T04:09:44.237Z,77.44
2019-04-27T04:12:23.816Z,77.13
2019-04-27T04:14:53.208Z,76.72
2019-04-27T04:17:24.249Z,76.80
2019-04-27T04:19:57.237Z,76.55
2019-04-27T04:22:24.827Z,76.25
2019-04-27T04:24:54.213Z,76.40
2019-04-27T04:27:23.621Z,76.29
2019-04-27T04:29:53.065Z,75.96
2019-04-27T04:32:22.475Z,75.32
2019-04-27T04:34:51.861Z,75.42
2019-04-27T04:37:21.267Z,75.79
2019-04-27T04:39:53.543Z,76.03
2019-04-27T04:42:29.943Z,75.59
2019-04-27T04:45:01.163Z,76.35
2019-04-27T04:47:34.631Z,76.35
2019-04-27T04:50:14.425Z,76.62
2019-04-27T04:52:41.868Z,76.26
2019-04-27T04:55:10.112Z,76.10
2019-04-27T04:57:40.127Z,76.28
2019-04-27T05:00:10.046Z,76.25
2019-04-27T05:02:39.899Z,76.92
2019-04-27T05:05:09.560Z,77.03
2019-04-27T05:07:39.006Z,77.79
2019-04-27T05:10:09.156Z,77.29
2019-04-27T05:12:38.794Z,78.10
2019-04-27T05:15:09.132Z,78.83
2019-04-27T05:17:39.861Z,78.74
2019-04-27T05:20:22.283Z,79.02
2019-04-27T05:22:42.305Z,79.38
2019-04-27T05:25:11.706Z,80.37
2019-04-27T05:27:41.166Z,79.67
2019-04-27T05:30:10.916Z,80.52
2019-04-27T05:32:40.319Z,80.42
2019-04-27T05:35:09.896Z,79.80
2019-04-27T05:37:39.333Z,80.41
2019-04-27T05:40:09.189Z,80.72
2019-04-27T05:42:39.782Z,81.32
2019-04-27T05:45:15.343Z,80.97
2019-04-27T05:47:48.419Z,81.27
2019-04-27T05:50:18.429Z,80.91
2019-04-27T05:52:46.658Z,81.21
2019-04-27T05:55:16.144Z,81.37
2019-04-27T05:57:45.543Z,81.53
2019-04-27T06:00:19.146Z,80.54
2019-04-27T06:02:48.835Z,80.24
2019-04-27T06:05:18.966Z,79.98
2019-04-27T06:07:48.907Z,79.66
2019-04-27T06:10:19.824Z,79.20
2019-04-27T06:12:49.388Z,78.84
2019-04-27T06:15:19.843Z,79.69
2019-04-27T06:17:49.338Z,78.94
2019-04-27T06:20:18.936Z,77.13
2019-04-27T06:22:48.923Z,78.32
2019-04-27T06:25:21.557Z,77.92
2019-04-27T06:27:49.702Z,77.62
2019-04-27T06:30:19.345Z,77.65
2019-04-27T06:32:49.473Z,76.98
2019-04-27T06:35:19.082Z,76.09
2019-04-27T06:37:49.237Z,75.58
2019-04-27T06:40:18.893Z,75.59
2019-04-27T06:42:48.694Z,75.16
2019-04-27T06:45:19.706Z,74.54
2019-04-27T06:47:51.198Z,75.28
2019-04-27T06:50:20.261Z,75.11
2019-04-27T06:52:49.656Z,74.60
2019-04-27T06:55:19.073Z,73.86
2019-04-27T06:57:49.090Z,73.23
2019-04-27T07:00:19.045Z,73.78
2019-04-27T07:02:49.263Z,74.23
2019-04-27T07:05:20.346Z,73.70
2019-04-27T07:07:49.860Z,72.98
2019-04-27T07:10:19.291Z,72.08
2019-04-27T07:12:49.171Z,72.38
2019-04-27T07:15:20.438Z,71.09
2019-04-27T07:17:49.693Z,70.33
2019-04-27T07:20:19.185Z,70.55
2019-04-27T07:22:49.679Z,70.62
2019-04-27T07:25:19.203Z,69.51
2019-04-27T07:27:49.372Z,68.80
2019-04-27T07:30:19.125Z,66.59
2019-04-27T07:32:48.916Z,66.34
2019-04-27T07:35:19.628Z,64.61
2019-04-27T07:37:49.287Z,64.42
2019-04-27T07:40:18.863Z,63.30
2019-04-27T07:42:49.955Z,62.20
2019-04-27T07:45:37.125Z,62.47
2019-04-27T07:48:06.617Z,63.47
2019-04-27T07:50:36.005Z,66.06
2019-04-27T07:53:05.427Z,66.60
2019-04-27T07:55:34.824Z,67.53
2019-04-27T07:58:05.225Z,67.74
2019-04-27T08:00:34.726Z,68.16
2019-04-27T08:03:04.332Z,69.93
2019-04-27T08:05:34.006Z,69.75
2019-04-27T08:08:03.432Z,70.17
2019-04-27T08:10:32.839Z,72.16
2019-04-27T08:13:02.262Z,73.87
2019-04-27T08:15:31.993Z,73.76
2019-04-27T08:18:01.384Z,74.60
2019-04-27T08:20:30.796Z,74.50
2019-04-27T08:23:01.373Z,75.48
2019-04-27T08:25:30.926Z,76.22
2019-04-27T08:28:08.546Z,76.67
2019-04-27T08:30:40.716Z,77.40
2019-04-27T08:33:11.484Z,77.59
2019-04-27T08:35:41.015Z,77.48
2019-04-27T08:38:10.442Z,79.06
2019-04-27T08:40:39.846Z,80.60
2019-04-27T08:43:09.385Z,79.01
2019-04-27T08:45:39.279Z,78.88
2019-04-27T08:48:09.335Z,77.87
2019-04-27T08:50:41.705Z,79.51
2019-04-27T08:53:10.018Z,77.91
2019-04-27T08:55:39.683Z,79.73
2019-04-27T08:58:10.070Z,78.62
2019-04-27T09:00:39.796Z,77.02
2019-04-27T09:03:09.618Z,75.40
2019-04-27T09:05:39.216Z,76.60
2019-04-27T09:08:22.378Z,76.28
2019-04-27T09:10:56.332Z,78.43
2019-04-27T09:13:29.798Z,79.97
2019-04-27T09:16:00.835Z,80.71
2019-04-27T09:21:29.977Z,79.47
2019-04-27T09:23:59.397Z,80.98
2019-04-27T09:26:28.836Z,80.94
2019-04-27T09:28:59.567Z,81.23
2019-04-27T09:31:28.999Z,80.60
2019-04-27T09:33:58.420Z,81.91
2019-04-27T09:36:27.824Z,82.02
2019-04-27T09:38:57.239Z,82.11
2019-04-27T09:41:26.706Z,81.15
2019-04-27T09:43:56.195Z,78.69
2019-04-27T09:46:26.056Z,79.74
2019-04-27T09:48:56.531Z,79.38
2019-04-27T09:51:25.982Z,80.15
2019-04-27T09:53:56.315Z,78.50
2019-04-27T09:56:26.176Z,79.42
2019-04-27T09:58:57.258Z,79.23
2019-04-27T10:01:28.860Z,78.14
2019-04-27T10:03:57.823Z,78.59
2019-04-27T10:06:29.863Z,78.85
2019-04-27T10:08:58.351Z,79.40
2019-04-27T10:11:27.790Z,79.06
2019-04-27T10:13:57.191Z,79.99
2019-04-27T10:16:26.623Z,80.34
2019-04-27T10:18:56.025Z,79.47
2019-04-27T10:21:26.424Z,79.39
2019-04-27T10:23:56.802Z,80.68
2019-04-27T10:26:26.289Z,77.67
2019-04-27T10:28:56.081Z,77.63
2019-04-27T10:31:25.494Z,79.69
2019-04-27T10:33:55.945Z,77.40
2019-04-27T10:36:40.794Z,76.95
2019-04-27T10:39:13.494Z,78.70
2019-04-27T10:41:43.090Z,78.48
2019-04-27T10:44:12.506Z,77.90
2019-04-27T10:46:41.977Z,76.35
2019-04-27T10:49:11.431Z,77.90
2019-04-27T10:51:40.856Z,75.18
2019-04-27T10:54:10.774Z,73.76
2019-04-27T10:56:40.188Z,73.87
2019-04-27T10:59:09.837Z,75.06
2019-04-27T11:01:39.305Z,75.26
2019-04-27T11:04:22.070Z,74.83
2019-04-27T11:06:53.130Z,75.26
2019-04-27T11:09:22.751Z,74.65
2019-04-27T11:11:52.282Z,72.26
2019-04-27T11:14:21.768Z,71.24
2019-04-27T11:16:51.186Z,72.99
2019-04-27T11:19:20.587Z,73.11
2019-04-27T11:21:50.263Z,71.65
2019-04-27T11:24:19.677Z,71.51
2019-04-27T11:26:49.103Z,73.52
2019-04-27T11:29:18.573Z,74.41
2019-04-27T11:31:48.001Z,73.93
2019-04-27T11:34:17.837Z,73.29
2019-04-27T11:36:57.935Z,71.82
2019-04-27T11:39:27.396Z,71.89
2019-04-27T11:41:56.953Z,72.17
2019-04-27T11:44:26.361Z,73.19
2019-04-27T11:46:55.964Z,70.69
2019-04-27T11:49:25.849Z,70.37
2019-04-27T11:51:56.685Z,67.74
2019-04-27T11:54:27.576Z,68.19
2019-04-27T11:56:57.193Z,67.73
2019-04-27T11:59:27.104Z,66.66
2019-04-27T12:01:56.627Z,67.00
2019-04-27T12:04:26.355Z,66.62
2019-04-27T12:06:56.471Z,67.91
2019-04-27T12:09:25.999Z,68.68
2019-04-27T12:11:57.466Z,68.35
2019-04-27T12:14:26.680Z,69.22
2019-04-27T12:16:56.260Z,69.06
2019-04-27T12:19:26.798Z,70.59
2019-04-27T12:21:56.577Z,70.77
2019-04-27T12:24:26.707Z,71.19
2019-04-27T12:26:57.951Z,71.34
2019-04-27T12:29:29.001Z,71.57
2019-04-27T12:31:58.404Z,71.44
2019-04-27T12:34:28.024Z,70.57
2019-04-27T12:36:57.422Z,70.20
2019-04-27T12:39:26.847Z,72.92
2019-04-27T12:41:56.232Z,68.97
2019-04-27T12:44:26.128Z,68.96
2019-04-27T12:46:57.512Z,67.75
2019-04-27T12:49:26.601Z,69.58
2019-04-27T12:51:56.034Z,66.16
2019-04-27T12:54:31.650Z,68.27
2019-04-27T12:57:20.820Z,65.96
2019-04-27T13:00:00.566Z,63.17
2019-04-27T13:02:34.008Z,63.67
2019-04-27T13:05:05.736Z,61.69
2019-04-27T13:07:35.175Z,63.42
2019-04-27T13:10:06.811Z,62.39
2019-04-27T13:12:36.227Z,63.98
2019-04-27T13:15:10.893Z,62.13
2019-04-27T13:17:40.320Z,60.50
2019-04-27T13:20:09.952Z,59.88
2019-04-27T13:22:39.366Z,59.39
2019-04-27T13:25:09.617Z,55.42
2019-04-27T13:27:39.062Z,54.94
2019-04-27T13:30:09.405Z,54.57
2019-04-27T13:32:38.831Z,54.28
2019-04-27T13:35:08.775Z,54.53
2019-04-27T13:37:39.909Z,53.66
2019-04-27T13:40:11.353Z,51.26
2019-04-27T13:42:57.957Z,53.43
2019-04-27T13:45:31.685Z,55.03
2019-04-27T13:48:18.961Z,54.08
2019-04-27T13:50:53.127Z,52.07
2019-04-27T13:53:22.550Z,53.39
2019-04-27T13:55:51.947Z,52.32
2019-04-27T13:58:21.369Z,53.12
2019-04-27T14:00:50.771Z,51.96
2019-04-27T14:03:21.093Z,52.26
2019-04-27T14:05:52.491Z,50.52
2019-04-27T14:08:21.672Z,50.97
2019-04-27T14:10:51.472Z,52.14
2019-04-27T14:13:20.877Z,50.28
2019-04-27T14:15:50.271Z,51.46
2019-04-27T14:18:19.687Z,47.80
2019-04-27T14:20:49.098Z,46.31
2019-04-27T14:23:20.155Z,46.22
2019-04-27T14:25:49.568Z,47.58
2019-04-27T14:28:18.997Z,47.88
2019-04-27T14:30:48.801Z,47.60
2019-04-27T14:33:18.672Z,48.08
2019-04-27T14:35:49.903Z,47.90
2019-04-27T14:38:19.460Z,47.29
2019-04-27T14:40:50.362Z,46.84
2019-04-27T14:43:19.856Z,47.93
2019-04-27T14:45:49.256Z,49.57
2019-04-27T14:48:18.673Z,54.68
2019-04-27T14:50:48.634Z,59.78
2019-04-27T14:53:18.068Z,64.06
2019-04-27T14:55:49.033Z,66.29
2019-04-27T14:58:19.379Z,68.74
2019-04-27T15:00:49.830Z,68.68
2019-04-27T15:03:19.449Z,67.29
2019-04-27T15:05:49.635Z,68.40
2019-04-27T15:08:20.284Z,68.83
2019-04-27T15:10:49.743Z,65.88
2019-04-27T15:13:19.273Z,66.06
2019-04-27T15:15:48.752Z,63.51
2019-04-27T15:18:19.743Z,66.07
2019-04-27T15:20:49.304Z,64.78
2019-04-27T15:23:20.073Z,64.94
2019-04-27T15:25:50.114Z,64.29
2019-04-27T15:28:32.903Z,63.52
2019-04-27T15:31:03.122Z,62.59
2019-04-27T15:33:51.452Z,64.16
2019-04-27T15:36:28.594Z,60.59
2019-04-27T15:38:59.649Z,62.51
2019-04-27T15:41:31.530Z,62.28
2019-04-27T15:44:05.729Z,60.35
2019-04-27T15:46:33.810Z,61.52
2019-04-27T15:49:08.047Z,58.96
2019-04-27T15:51:35.837Z,59.93
2019-04-27T15:54:05.279Z,57.31
2019-04-27T15:56:35.095Z,54.07
2019-04-27T15:59:08.154Z,55.29
2019-04-27T16:01:39.558Z,55.03
2019-04-27T16:04:11.115Z,53.97
2019-04-27T16:06:42.841Z,52.86
2019-04-27T16:09:16.143Z,53.70
2019-04-27T16:11:50.232Z,53.23
2019-04-27T16:14:15.280Z,53.95
2019-04-27T16:16:44.749Z,53.15
2019-04-27T16:19:14.231Z,52.70
2019-04-27T16:21:47.779Z,53.86
2019-04-27T16:24:17.210Z,54.43
2019-04-27T16:26:46.408Z,54.57
2019-04-27T16:29:18.685Z,56.81
2019-04-27T16:31:48.232Z,55.10
2019-04-27T16:34:18.477Z,55.93
2019-04-27T16:36:48.069Z,54.61
2019-04-27T16:39:18.130Z,55.02
2019-04-27T16:41:50.309Z,54.54
2019-04-27T16:44:19.800Z,53.31
2019-04-27T16:46:49.223Z,55.10
2019-04-27T16:49:18.810Z,53.53
2019-04-27T16:51:49.176Z,53.65
2019-04-27T16:54:21.308Z,54.86
2019-04-27T16:59:39.836Z,55.71
2019-04-27T17:01:52.136Z,58.17
2019-04-27T17:04:21.535Z,60.75
2019-04-27T17:06:50.952Z,62.38
2019-04-27T17:09:20.424Z,65.52
2019-04-27T17:11:51.664Z,67.63
2019-04-27T17:12:41.350Z,55.04
2019-04-27T17:14:26.599Z,72.25
2019-04-27T17:16:58.294Z,73.01
2019-04-27T17:19:35.762Z,73.81
2019-04-27T17:22:02.875Z,72.58
2019-04-27T17:24:44.726Z,74.31
2019-04-27T17:27:11.014Z,70.75
2019-04-27T17:29:40.234Z,70.26
2019-04-27T17:32:11.725Z,71.54
2019-04-27T17:34:41.146Z,72.29
2019-04-27T17:37:10.553Z,71.16
2019-04-27T17:39:39.950Z,68.48
2019-04-27T17:42:09.400Z,69.09
2019-04-27T17:44:39.352Z,67.18
2019-04-27T17:47:10.633Z,66.18
2019-04-27T17:49:39.981Z,66.71
2019-04-27T17:52:13.130Z,67.67
2019-04-27T17:54:47.243Z,67.51
2019-04-27T17:57:13.584Z,66.61
2019-04-27T17:59:42.693Z,67.74
2019-04-27T18:02:12.097Z,67.83
2019-04-27T18:04:41.494Z,68.17
2019-04-27T18:07:11.006Z,69.71
2019-04-27T18:09:43.497Z,69.11
2019-04-27T18:12:14.896Z,69.46
2019-04-27T18:14:42.681Z,69.44
2019-04-27T18:17:12.340Z,70.08
2019-04-27T18:19:46.358Z,70.11
2019-04-27T18:22:15.791Z,70.66
2019-04-27T18:24:55.726Z,70.53
2019-04-27T18:27:33.628Z,72.24
2019-04-27T18:30:10.488Z,72.76
2019-04-27T18:32:40.438Z,72.32
2019-04-27T18:35:10.031Z,72.33
2019-04-27T18:37:39.481Z,73.11
2019-04-27T18:40:09.412Z,72.96
2019-04-27T18:42:38.904Z,73.48
2019-04-27T18:45:09.077Z,72.86
2019-04-27T18:47:40.562Z,72.13
2019-04-27T18:50:14.653Z,71.26
2019-04-27T18:53:03.282Z,72.07
2019-04-27T18:55:32.665Z,71.76
2019-04-27T18:58:02.211Z,72.14
2019-04-27T19:00:31.558Z,73.41
2019-04-27T19:03:00.975Z,72.63
2019-04-27T19:05:39.599Z,72.98
2019-04-27T19:08:01.480Z,73.32
2019-04-27T19:10:30.867Z,73.18
2019-04-27T19:13:00.273Z,73.07
2019-04-27T19:15:29.703Z,73.12
2019-04-27T19:17:59.114Z,72.47
2019-04-27T19:20:28.846Z,72.67
2019-04-27T19:22:59.830Z,72.73
2019-04-27T19:25:33.322Z,72.22
2019-04-27T19:28:08.431Z,72.35
2019-04-27T19:30:45.834Z,72.47
2019-04-27T19:33:15.241Z,71.98
2019-04-27T19:35:44.648Z,72.56
2019-04-27T19:38:14.036Z,71.99
2019-04-27T19:40:43.468Z,72.04
2019-04-27T19:43:12.865Z,71.22
2019-04-27T19:45:42.298Z,69.80
2019-04-27T19:48:11.675Z,69.94
2019-04-27T19:50:41.090Z,69.77
2019-04-27T19:53:10.479Z,70.44
2019-04-27T19:55:40.626Z,69.54
2019-04-27T19:58:10.321Z,69.77
2019-04-27T20:00:53.556Z,70.27
2019-04-27T20:03:33.798Z,69.26
2019-04-27T20:06:03.465Z,68.62
2019-04-27T20:08:43.712Z,69.90
2019-04-27T20:11:13.094Z,68.57
2019-04-27T20:13:42.501Z,69.44
2019-04-27T20:16:11.959Z,68.74
2019-04-27T20:18:43.290Z,69.83
2019-04-27T20:21:12.558Z,69.73
2019-04-27T20:23:41.966Z,68.94
2019-04-27T20:26:11.380Z,69.89
2019-04-27T20:28:41.453Z,69.54
2019-04-27T20:31:10.903Z,69.95
2019-04-27T20:33:41.598Z,71.06
2019-04-27T20:36:11.273Z,70.88
2019-04-27T20:38:41.828Z,70.34
2019-04-27T20:41:11.649Z,70.84
2019-04-27T20:43:42.038Z,69.43
2019-04-27T20:46:11.906Z,69.28
2019-04-27T20:48:41.509Z,68.57
2019-04-27T20:51:11.507Z,69.19
2019-04-27T20:53:42.651Z,69.06
2019-04-27T20:56:12.055Z,69.63
2019-04-27T20:58:41.460Z,70.11
2019-04-27T21:01:10.939Z,69.64
2019-04-27T21:03:41.969Z,68.89
2019-04-27T21:06:13.020Z,69.76
2019-04-27T21:08:43.996Z,68.82
2019-04-27T21:11:13.472Z,69.64
2019-04-27T21:13:42.878Z,69.38
2019-04-27T21:16:12.631Z,69.37
2019-04-27T21:18:42.125Z,68.95
2019-04-27T21:21:11.553Z,69.14
2019-04-27T21:23:41.522Z,69.16
2019-04-27T21:26:11.116Z,68.14
2019-04-27T21:28:42.941Z,68.65
2019-04-27T21:31:12.804Z,68.48
2019-04-27T21:33:42.236Z,69.14
2019-04-27T21:36:11.889Z,69.25
2019-04-27T21:38:42.900Z,69.39
2019-04-27T21:41:12.651Z,69.71
2019-04-27T21:43:43.747Z,70.21
2019-04-27T21:46:13.330Z,69.38
2019-04-27T21:48:42.764Z,69.60
2019-04-27T21:51:12.290Z,69.78
2019-04-27T21:53:46.034Z,70.33
2019-04-27T21:56:15.459Z,70.71
2019-04-27T21:58:44.900Z,70.71
2019-04-27T22:01:16.231Z,70.51
2019-04-27T22:03:45.847Z,70.53
2019-04-27T22:06:15.254Z,70.65
2019-04-27T22:08:44.650Z,70.69
2019-04-27T22:11:14.165Z,70.74
2019-04-27T22:13:43.552Z,71.05
2019-04-27T22:16:13.187Z,70.95
2019-04-27T22:18:42.536Z,70.57
2019-04-27T22:21:11.934Z,70.65
2019-04-27T22:23:54.971Z,71.34
2019-04-27T22:26:24.408Z,71.44
2019-04-27T22:28:53.799Z,71.17
2019-04-27T22:31:23.280Z,71.76
2019-04-27T22:33:54.634Z,71.26
2019-04-27T22:36:23.785Z,71.33
2019-04-27T22:38:55.056Z,71.04
2019-04-27T22:41:26.175Z,71.06
2019-04-27T22:43:57.254Z,70.91
2019-04-27T22:46:33.997Z,70.24
2019-04-27T22:49:03.386Z,70.71
2019-04-27T22:51:32.794Z,70.16
2019-04-27T22:54:02.181Z,69.57
2019-04-27T22:56:32.265Z,69.51
2019-04-27T22:59:06.047Z,69.39
2019-04-27T23:01:42.873Z,69.95
2019-04-27T23:04:16.651Z,69.60
2019-04-27T23:06:46.058Z,70.17
2019-04-27T23:09:15.524Z,69.78
2019-04-27T23:11:45.007Z,70.08
2019-04-27T23:14:14.462Z,70.78
2019-04-27T23:16:45.582Z,70.88
2019-04-27T23:19:14.977Z,70.92
2019-04-27T23:21:44.385Z,70.77
2019-04-27T23:24:13.764Z,70.94
2019-04-27T23:26:43.186Z,71.47
2019-04-27T23:29:15.691Z,72.53
2019-04-27T23:31:45.329Z,72.85
2019-04-27T23:34:14.716Z,72.55
2019-04-27T23:36:44.429Z,73.33
2019-04-27T23:39:14.073Z,73.12
2019-04-27T23:41:43.490Z,73.61
2019-04-27T23:44:12.882Z,73.81
2019-04-27T23:46:42.355Z,73.50
2019-04-27T23:49:12.185Z,73.42
2019-04-27T23:51:51.891Z,72.91
2019-04-27T23:54:21.384Z,73.08
2019-04-27T23:56:51.890Z,73.79
2019-04-27T23:59:25.174Z,74.69
